Time;durP1;ratioP1;P1;durP2;ratioP2;P2;SDS_P1;SDS_P2;PMS_P1;PMS_P2;Temp;Humidity;BMP_temperature;BMP_pressure;BME280_temperature;BME280_humidity;BME280_pressure;Samples;Min_cycle;Max_cycle;Signal;HPM_P1;HPM_P2
2021/04/20 00:00:16;;;;;;;61.55;45.20;;;;;;;8.36;91.09;101942.84;5056159;28;20047;-75
2021/04/20 00:02:41;;;;;;;61.03;44.05;;;;;;;8.37;91.33;101941.88;5052944;28;20551;-78
2021/04/20 00:05:12;;;;;;;67.07;46.83;;;;;;;8.35;91.19;101934.03;5054531;28;20044;-82
2021/04/20 00:07:38;;;;;;;69.72;47.75;;;;;;;8.31;91.78;101937.03;5041716;28;20116;-75
2021/04/20 00:10:13;;;;;;;68.68;48.65;;;;;;;8.30;91.60;101935.34;5041068;28;20517;-74
2021/04/20 00:12:39;;;;;;;64.68;48.22;;;;;;;8.28;92.09;101930.09;5054767;28;20486;-75
2021/04/20 00:15:10;;;;;;;68.50;48.35;;;;;;;8.15;91.96;101908.03;5036051;28;20101;-75
2021/04/20 00:17:36;;;;;;;71.47;50.33;;;;;;;8.24;91.95;101929.47;5054629;28;20033;-82
2021/04/20 00:20:06;;;;;;;65.70;47.90;;;;;;;8.18;92.13;101924.63;5054967;28;20076;-81
2021/04/20 00:22:31;;;;;;;73.20;49.90;;;;;;;8.14;92.91;101923.13;5053646;28;20060;-76
2021/04/20 00:24:57;;;;;;;69.40;47.90;;;;;;;8.11;92.84;101926.88;5052969;28;20106;-82
2021/04/20 00:27:22;;;;;;;68.45;49.38;;;;;;;8.08;92.48;101927.09;5053487;28;20035;-76
2021/04/20 00:29:48;;;;;;;68.65;49.83;;;;;;;7.97;92.82;101911.06;5056267;28;20773;-82
2021/04/20 00:32:13;;;;;;;68.43;48.13;;;;;;;8.04;92.61;101916.78;5052442;28;20067;-82
2021/04/20 00:34:39;;;;;;;70.20;48.83;;;;;;;8.02;92.69;101922.19;5053338;28;20058;-74
2021/04/20 00:37:04;;;;;;;64.60;46.88;;;;;;;8.00;92.35;101916.16;5053804;28;20033;-75
2021/04/20 00:39:30;;;;;;;70.32;50.55;;;;;;;7.97;92.90;101916.38;5054086;28;20036;-75
2021/04/20 00:42:04;;;;;;;67.97;47.67;;;;;;;7.97;92.63;101914.56;5054879;28;20037;-75
2021/04/20 00:44:31;;;;;;;66.72;47.67;;;;;;;7.96;92.38;101918.16;5050505;28;20260;-81
2021/04/20 00:46:58;;;;;;;67.93;47.50;;;;;;;7.91;92.42;101917.66;5053813;28;20163;-83
2021/04/20 00:49:23;;;;;;;68.07;48.10;;;;;;;7.89;92.55;101916.94;5036719;28;20064;-75
2021/04/20 00:51:51;;;;;;;64.70;47.47;;;;;;;7.89;92.54;101918.72;5053177;28;20116;-74
2021/04/20 00:54:16;;;;;;;70.27;50.37;;;;;;;7.89;93.02;101911.63;5053359;28;20016;-74
2021/04/20 00:56:42;;;;;;;68.07;48.75;;;;;;;7.82;92.57;101889.94;5054774;28;20036;-74
2021/04/20 00:59:07;;;;;;;74.03;50.38;;;;;;;7.92;93.07;101902.56;5042968;28;20043;-75
2021/04/20 01:01:33;;;;;;;75.25;51.08;;;;;;;7.61;93.50;101862.22;5053152;28;20138;-74
2021/04/20 01:03:59;;;;;;;77.82;52.42;;;;;;;7.85;94.29;101901.31;5053558;28;20107;-74
2021/04/20 01:06:25;;;;;;;72.88;50.88;;;;;;;7.82;93.81;101907.69;5050548;28;20045;-75
2021/04/20 01:08:51;;;;;;;73.43;51.53;;;;;;;7.69;93.38;101885.59;5052753;28;20036;-75
2021/04/20 01:11:17;;;;;;;72.45;51.40;;;;;;;7.69;93.95;101896.22;5057109;28;20039;-75
2021/04/20 01:13:42;;;;;;;74.53;51.53;;;;;;;7.76;94.18;101900.16;5051616;28;20040;-82
2021/04/20 01:16:08;;;;;;;74.22;51.05;;;;;;;7.76;94.03;101905.47;5054826;28;20028;-81
2021/04/20 01:18:36;;;;;;;79.15;52.83;;;;;;;7.74;94.11;101905.56;5035419;28;20041;-81
2021/04/20 01:21:04;;;;;;;74.30;51.53;;;;;;;7.74;94.29;101902.06;5053980;28;20045;-74
2021/04/20 01:23:48;;;;;;;73.20;51.95;;;;;;;7.73;94.68;101890.59;5053123;28;20035;-74
2021/04/20 01:26:14;;;;;;;77.75;53.20;;;;;;;7.72;95.03;101899.53;5054090;28;20419;-82
2021/04/20 01:28:39;;;;;;;75.03;50.88;;;;;;;7.69;95.09;101897.09;5054357;28;20604;-82
2021/04/20 01:31:06;;;;;;;73.53;50.88;;;;;;;7.47;95.10;101860.56;5052427;28;20048;-74
2021/04/20 01:33:32;;;;;;;73.57;52.00;;;;;;;7.71;95.30;101902.28;5055156;28;20640;-75
2021/04/20 01:35:58;;;;;;;77.75;53.30;;;;;;;7.62;95.25;101886.03;5051703;28;20036;-75
2021/04/20 01:38:24;;;;;;;70.85;51.00;;;;;;;7.71;94.92;101894.31;5053471;28;20028;-83
2021/04/20 01:40:49;;;;;;;68.72;49.20;;;;;;;7.71;94.82;101894.31;5053882;28;20028;-75
2021/04/20 01:43:15;;;;;;;67.70;48.17;;;;;;;7.69;94.61;101896.22;5040527;28;20098;-83
2021/04/20 01:45:42;;;;;;;64.57;45.17;;;;;;;7.63;95.12;101890.41;5055416;28;20061;-75
2021/04/20 01:48:11;;;;;;;66.68;46.90;;;;;;;7.43;94.95;101862.56;5056278;28;20068;-83
2021/04/20 01:50:41;;;;;;;66.22;47.00;;;;;;;7.53;94.71;101888.47;5060514;28;20118;-74
2021/04/20 01:53:07;;;;;;;63.47;44.88;;;;;;;7.46;94.82;101891.59;5055118;28;21461;-75
2021/04/20 01:55:32;;;;;;;66.47;45.55;;;;;;;7.38;95.13;101893.91;5054860;28;20659;-74
2021/04/20 01:57:58;;;;;;;61.58;44.22;;;;;;;7.32;95.12;101892.53;5056100;28;20028;-75
2021/04/20 02:00:25;;;;;;;64.65;44.33;;;;;;;7.27;95.51;101891.97;5056656;28;20044;-74
2021/04/20 02:02:50;;;;;;;62.25;44.17;;;;;;;7.25;94.84;101893.06;5054801;28;20032;-75
2021/04/20 02:05:16;;;;;;;61.42;44.13;;;;;;;7.21;94.83;101889.78;5061026;28;20043;-76
2021/04/20 02:07:43;;;;;;;62.03;43.83;;;;;;;7.20;95.27;101894.22;5056914;28;21289;-82
2021/04/20 02:10:10;;;;;;;59.55;43.58;;;;;;;7.12;95.60;101874.47;5057147;28;20069;-83
2021/04/20 02:12:37;;;;;;;60.45;43.60;;;;;;;7.04;94.79;101867.88;5057510;28;20049;-82
2021/04/20 02:15:09;;;;;;;59.85;43.40;;;;;;;7.14;95.07;101881.38;5034852;28;20035;-74
2021/04/20 02:17:35;;;;;;;64.28;43.83;;;;;;;7.13;95.50;101887.63;5048854;28;20793;-75
2021/04/20 02:20:04;;;;;;;64.20;43.58;;;;;;;7.12;95.50;101885.09;5081269;28;20368;-75
2021/04/20 02:22:31;;;;;;;60.28;42.72;;;;;;;7.12;95.03;101885.09;5053375;28;20242;-75
2021/04/20 02:24:56;;;;;;;57.58;42.25;;;;;;;7.11;94.93;101881.56;5034637;28;20036;-81
2021/04/20 02:27:22;;;;;;;53.88;39.67;;;;;;;6.94;94.37;101864.16;5054784;28;20037;-75
2021/04/20 02:29:48;;;;;;;58.92;40.50;;;;;;;7.10;94.76;101884.34;5034023;28;20122;-75
2021/04/20 02:32:14;;;;;;;60.20;40.47;;;;;;;6.89;94.61;101856.50;5049961;28;20041;-75
2021/04/20 02:34:40;;;;;;;56.60;40.33;;;;;;;7.07;93.66;101879.25;5050695;28;20029;-74
2021/04/20 02:37:06;;;;;;;54.65;39.70;;;;;;;7.04;93.31;101881.16;5051878;28;20037;-81
2021/04/20 02:39:32;;;;;;;52.15;38.60;;;;;;;6.95;93.28;101873.81;5049545;28;20024;-75
2021/04/20 02:41:57;;;;;;;55.50;41.13;;;;;;;6.76;93.58;101844.16;5052227;28;20056;-75
2021/04/20 02:44:23;;;;;;;57.70;40.00;;;;;;;6.96;94.37;101875.53;5048154;28;20521;-75
2021/04/20 02:46:49;;;;;;;53.88;38.67;;;;;;;6.92;94.71;101874.03;5054253;28;20029;-75
2021/04/20 02:49:15;;;;;;;54.78;39.20;;;;;;;6.88;94.04;101876.03;5050373;28;20056;-74
2021/04/20 02:51:42;;;;;;;55.13;37.35;;;;;;;6.55;94.27;101829.59;5050793;28;20316;-81
2021/04/20 02:54:09;;;;;;;52.38;38.67;;;;;;;6.84;94.68;101877.19;5048639;28;20102;-75
2021/04/20 02:56:35;;;;;;;54.17;39.03;;;;;;;6.81;94.58;101874.75;5047484;28;20044;-75
2021/04/20 02:59:05;;;;;;;55.65;38.08;;;;;;;6.79;94.78;101883.75;5052684;28;20136;-74
2021/04/20 03:01:31;;;;;;;51.70;36.70;;;;;;;6.79;94.48;101878.47;5051906;28;20044;-81
2021/04/20 03:03:58;;;;;;;47.33;35.63;;;;;;;6.66;94.24;101844.78;5056391;28;20037;-81
2021/04/20 03:06:24;;;;;;;48.55;36.55;;;;;;;6.79;93.83;101879.28;5059743;28;20406;-81
2021/04/20 03:08:50;;;;;;;49.90;36.13;;;;;;;6.74;93.25;101876.94;5059256;28;20013;-75
2021/04/20 03:11:26;;;;;;;51.92;37.28;;;;;;;6.73;94.43;101872.59;5062596;28;20565;-80
2021/04/20 03:13:52;;;;;;;51.88;37.00;;;;;;;6.72;95.02;101868.25;5059135;28;20099;-75
2021/04/20 03:16:18;;;;;;;52.05;36.75;;;;;;;6.69;93.90;101867.59;5067468;28;20123;-81
2021/04/20 03:18:48;;;;;;;47.15;34.60;;;;;;;6.67;93.73;101862.41;5053482;28;20447;-75
2021/04/20 03:21:17;;;;;;;47.38;34.85;;;;;;;6.63;93.83;101858.25;5059239;28;20020;-75
2021/04/20 03:23:44;;;;;;;48.13;34.75;;;;;;;6.45;93.73;101828.50;5061963;28;20065;-74
2021/04/20 03:26:25;;;;;;;50.05;35.13;;;;;;;6.61;93.52;101859.31;5055369;28;20056;-73
2021/04/20 03:28:54;;;;;;;49.22;35.17;;;;;;;6.46;93.91;101838.16;5060398;28;20417;-74
2021/04/20 03:31:20;;;;;;;50.58;34.65;;;;;;;6.60;94.11;101853.16;5059491;28;20745;-81
2021/04/20 03:33:52;;;;;;;47.42;34.30;;;;;;;6.58;93.97;101855.09;5058374;28;20037;-75
2021/04/20 03:36:23;;;;;;;49.53;34.85;;;;;;;6.45;93.31;101841.78;5073159;28;20020;-75
2021/04/20 03:39:16;;;;;;;43.25;32.38;;;;;;;6.46;93.01;101847.91;5069242;28;20028;-75
2021/04/20 03:42:03;;;;;;;45.38;32.95;;;;;;;6.50;92.90;101860.03;5061929;28;20033;-81
2021/04/20 03:44:42;;;;;;;51.78;35.03;;;;;;;6.44;93.62;101853.31;5074587;28;20138;-75
2021/04/20 03:47:13;;;;;;;47.78;33.50;;;;;;;6.49;93.93;101851.22;5063682;28;20031;-74
2021/04/20 03:49:43;;;;;;;47.40;33.33;;;;;;;6.44;92.79;101850.69;5070341;28;20478;-74
2021/04/20 03:52:28;;;;;;;43.72;32.88;;;;;;;6.42;92.99;101852.56;5066003;28;20033;-74
2021/04/20 03:54:56;;;;;;;46.28;32.25;;;;;;;6.31;93.58;101831.22;5063944;28;20020;-74
2021/04/20 03:57:26;;;;;;;44.78;33.00;;;;;;;6.38;93.86;101851.94;5063234;28;20032;-74
2021/04/20 03:59:54;;;;;;;47.65;33.28;;;;;;;6.38;94.54;101846.63;5066208;28;20032;-74
2021/04/20 04:02:20;;;;;;;47.80;31.83;;;;;;;6.35;93.28;101845.97;5069203;28;20106;-74
2021/04/20 04:04:47;;;;;;;46.03;32.50;;;;;;;6.36;94.25;101850.34;5051360;28;20036;-82
2021/04/20 04:07:15;;;;;;;45.53;31.75;;;;;;;6.28;93.53;101840.25;5064197;28;20356;-74
2021/04/20 04:09:41;;;;;;;;;;;;;;;6.32;94.02;101846.19;5067691;28;20312;-74
2021/04/20 04:12:09;;;;;;;41.63;29.08;;;;;;;6.25;92.88;101843.91;5067704;28;20015;-74
2021/04/20 04:14:36;;;;;;;42.20;29.10;;;;;;;5.34;92.24;101712.84;5045398;28;20075;-74
2021/04/20 04:17:07;;;;;;;43.65;30.27;;;;;;;6.12;93.05;101837.72;5065918;28;20032;-74
2021/04/20 04:19:38;;;;;;;45.55;31.80;;;;;;;6.08;93.54;101844.19;5058302;28;20533;-75
2021/04/20 04:22:12;;;;;;;44.25;31.20;;;;;;;6.09;94.41;101845.88;5063510;28;20033;-83
2021/04/20 04:25:05;;;;;;;47.00;31.35;;;;;;;6.08;94.68;101841.53;5066971;28;20023;-75
2021/04/20 04:27:39;;;;;;;46.70;31.52;;;;;;;6.09;94.99;101840.59;5065338;28;20031;-75
2021/04/20 04:30:07;;;;;;;43.03;31.65;;;;;;;6.11;94.76;101841.31;5072200;28;20029;-74
2021/04/20 04:32:34;;;;;;;45.25;31.63;;;;;;;6.07;94.65;101838.00;5049767;28;20063;-74
2021/04/20 04:35:04;;;;;;;45.42;31.95;;;;;;;6.06;94.31;101838.13;5054973;28;20490;-83
2021/04/20 04:37:31;;;;;;;46.20;31.95;;;;;;;6.08;93.48;101839.72;5067054;28;20048;-74
2021/04/20 04:39:58;;;;;;;46.40;32.03;;;;;;;6.05;93.90;101833.78;5071587;28;20059;-83
2021/04/20 04:42:24;;;;;;;49.33;32.97;;;;;;;6.02;93.59;101848.09;5065774;28;20479;-75
2021/04/20 04:44:50;;;;;;;47.78;32.40;;;;;;;6.00;93.65;101855.28;5061671;28;20045;-74
2021/04/20 04:47:15;;;;;;;48.25;33.42;;;;;;;6.03;93.84;101847.13;5060972;28;20054;-84
2021/04/20 04:49:41;;;;;;;47.85;34.03;;;;;;;6.04;95.04;101847.97;5059803;28;20051;-83
2021/04/20 04:52:08;;;;;;;48.22;33.55;;;;;;;6.08;94.15;101842.38;5059118;28;20115;-74
2021/04/20 04:54:33;;;;;;;48.45;32.05;;;;;;;5.85;93.13;101814.66;5071523;28;20075;-75
2021/04/20 04:57:01;;;;;;;50.95;32.92;;;;;;;6.08;94.17;101850.31;5063547;28;20522;-74
2021/04/20 04:59:29;;;;;;;50.70;33.90;;;;;;;6.13;95.05;101848.22;5064976;28;20033;-74
2021/04/20 05:01:56;;;;;;;49.38;33.97;;;;;;;6.15;94.02;101857.88;5066747;28;20025;-74
2021/04/20 05:04:25;;;;;;;50.92;34.03;;;;;;;5.88;94.55;101806.53;5064088;28;20032;-74
2021/04/20 05:06:52;;;;;;;51.00;34.55;;;;;;;6.06;94.74;101841.63;5049551;28;20041;-84
2021/04/20 05:09:19;;;;;;;50.33;32.95;;;;;;;6.09;94.75;101845.88;5055919;28;20085;-85
2021/04/20 05:11:46;;;;;;;50.85;33.63;;;;;;;6.20;94.21;101858.41;5058511;28;20020;-84
2021/04/20 05:14:13;;;;;;;50.67;34.05;;;;;;;6.22;94.47;101856.53;5062394;28;20103;-74
2021/04/20 05:16:40;;;;;;;49.70;33.42;;;;;;;6.30;94.83;101859.53;5065383;28;20025;-74
2021/04/20 05:19:09;;;;;;;53.85;35.90;;;;;;;6.39;94.11;101863.38;5072792;28;20115;-84
2021/04/20 05:21:35;;;;;;;57.58;36.08;;;;;;;6.31;94.59;101839.19;5064968;28;20021;-83
2021/04/20 05:24:00;;;;;;;48.97;34.45;;;;;;;6.51;94.51;101859.94;5057987;28;20490;-74
2021/04/20 05:26:30;;;;;;;53.72;36.17;;;;;;;6.57;93.78;101862.16;5066460;28;20068;-74
2021/04/20 05:29:02;;;;;;;52.83;35.10;;;;;;;6.70;93.92;101856.91;5063017;28;20035;-74
2021/04/20 05:31:29;;;;;;;54.30;34.17;;;;;;;6.55;93.50;101818.16;5062547;28;20586;-83
2021/04/20 05:33:56;;;;;;;52.00;33.65;;;;;;;6.68;93.22;101840.25;5061756;28;20478;-83
2021/04/20 05:36:22;;;;;;;47.35;33.47;;;;;;;6.94;92.43;101864.16;5067396;28;20063;-82
2021/04/20 05:38:55;;;;;;;48.90;33.55;;;;;;;7.10;92.34;101865.78;5066964;28;20037;-87
2021/04/20 05:41:24;;;;;;;48.80;32.95;;;;;;;7.19;91.51;101867.78;5060998;28;20704;-73
2021/04/20 05:43:51;;;;;;;50.75;34.65;;;;;;;7.30;91.58;101873.19;5055419;28;20425;-90
2021/04/20 05:46:17;;;;;;;55.25;34.40;;;;;;;7.31;91.64;101853.66;5055499;28;20138;-74
2021/04/20 05:48:43;;;;;;;49.10;33.97;;;;;;;7.59;90.97;101870.31;5057065;28;20490;-73
2021/04/20 05:51:11;;;;;;;52.40;35.45;;;;;;;7.57;90.55;101852.78;5058475;28;20060;-74
2021/04/20 05:53:36;;;;;;;53.53;36.83;;;;;;;7.73;90.16;101872.00;5057084;28;20025;-74
2021/04/20 05:56:02;;;;;;;50.83;35.40;;;;;;;7.60;89.83;101840.13;5060220;28;20346;-73
2021/04/20 05:58:28;;;;;;;52.38;36.17;;;;;;;7.96;89.27;101870.31;5041706;28;20036;-74
2021/04/20 06:00:54;;;;;;;53.05;36.78;;;;;;;8.06;89.02;101875.84;5055729;28;20039;-74
2021/04/20 06:03:19;;;;;;;55.42;38.35;;;;;;;8.53;87.03;101875.16;5039271;28;20939;-74
2021/04/20 06:05:45;;;;;;;50.67;37.45;;;;;;;9.21;84.77;101875.34;5054055;28;20534;-74
2021/04/20 06:08:11;;;;;;;48.40;36.17;;;;;;;9.85;80.57;101841.91;5054289;28;20052;-74
2021/04/20 06:10:37;;;;;;;49.92;35.40;;;;;;;10.91;75.54;101876.00;5057055;28;20033;-74
2021/04/20 06:13:03;;;;;;;48.25;34.28;;;;;;;11.72;72.23;101875.31;5056557;28;20369;-74
2021/04/20 06:15:29;;;;;;;43.45;33.95;;;;;;;12.21;69.43;101843.34;5058266;28;20089;-73
2021/04/20 06:17:56;;;;;;;44.60;34.42;;;;;;;12.94;66.36;101856.25;5051191;28;20029;-74
2021/04/20 06:20:23;;;;;;;40.92;32.92;;;;;;;13.50;64.78;101877.88;5047130;28;20044;-74
2021/04/20 06:22:51;;;;;;;44.10;33.22;;;;;;;14.03;63.60;101884.38;5047511;28;20059;-73
2021/04/20 06:25:18;;;;;;;44.75;35.92;;;;;;;14.38;61.98;101871.16;5049787;28;20036;-74
2021/04/20 06:27:44;;;;;;;41.75;34.33;;;;;;;14.76;59.32;101884.44;5053395;28;20533;-75
2021/04/20 06:30:12;;;;;;;40.20;34.47;;;;;;;14.99;59.18;101877.56;5047163;28;20036;-73
2021/04/20 06:32:42;;;;;;;39.90;33.38;;;;;;;15.42;57.87;101880.34;5033172;28;20052;-74
2021/04/20 06:35:13;;;;;;;44.15;34.95;;;;;;;15.48;57.63;101878.88;5047916;28;20032;-74
2021/04/20 06:37:41;;;;;;;42.33;35.08;;;;;;;15.70;57.05;101877.47;5047087;28;20024;-74
2021/04/20 06:40:12;;;;;;;43.25;35.38;;;;;;;15.88;55.54;101877.38;5046988;28;20223;-74
2021/04/20 06:42:42;;;;;;;40.97;33.75;;;;;;;15.71;55.39;101811.88;5046313;28;20032;-74
2021/04/20 06:45:12;;;;;;;41.42;35.17;;;;;;;16.33;55.69;101882.53;5046128;28;20624;-74
2021/04/20 06:47:57;;;;;;;41.80;35.15;;;;;;;16.49;54.34;101870.94;5046170;28;20051;-87
2021/04/20 06:50:24;;;;;;;40.75;35.63;;;;;;;16.77;52.77;101876.00;5051816;28;20017;-75
2021/04/20 06:53:03;;;;;;;40.55;35.78;;;;;;;16.76;53.25;101896.69;5044266;28;20751;-73
2021/04/20 06:55:57;;;;;;;40.40;35.80;;;;;;;17.26;51.71;101886.72;5032612;28;20143;-82
2021/04/20 06:59:05;;;;;;;43.08;35.42;;;;;;;17.62;50.63;101887.31;5049388;28;20028;-83
2021/04/20 07:01:47;;;;;;;41.15;35.50;;;;;;;17.32;51.89;101887.91;5044301;28;20178;-83
2021/04/20 07:04:31;;;;;;;40.30;35.78;;;;;;;17.82;49.58;101885.88;5054280;28;20060;-82
2021/04/20 07:07:19;;;;;;;43.80;36.58;;;;;;;18.09;50.33;101882.91;5053418;28;20560;-78
2021/04/20 07:09:53;;;;;;;39.67;35.60;;;;;;;18.13;48.33;101844.56;5053796;28;20070;-75
2021/04/20 07:12:21;;;;;;;39.53;35.30;;;;;;;18.61;47.52;101879.50;5052320;28;21197;-74
2021/04/20 07:14:52;;;;;;;42.28;36.42;;;;;;;18.43;48.21;101881.66;5051658;28;20033;-74
2021/04/20 07:17:18;;;;;;;41.75;37.20;;;;;;;18.43;48.73;101885.22;5054575;28;20107;-74
2021/04/20 07:20:19;;;;;;;41.58;36.92;;;;;;;18.66;48.62;101879.78;5051556;28;20039;-81
2021/04/20 07:23:08;;;;;;;41.08;36.10;;;;;;;18.79;47.88;101889.16;5053915;28;20052;-74
2021/04/20 07:25:42;;;;;;;41.42;36.92;;;;;;;19.20;47.57;101879.84;5082008;27;20257;-75
2021/04/20 07:28:37;;;;;;;41.25;36.88;;;;;;;19.38;45.59;101887.59;5052608;28;20029;-74
2021/04/20 07:31:09;;;;;;;43.45;37.65;;;;;;;19.22;45.70;101870.50;5041401;28;20047;-74
2021/04/20 07:33:38;;;;;;;44.13;39.42;;;;;;;19.56;45.74;101892.63;5047147;28;20040;-75
2021/04/20 07:36:17;;;;;;;41.45;37.03;;;;;;;19.72;45.11;101883.47;5040783;28;20076;-81
2021/04/20 07:38:56;;;;;;;40.63;36.30;;;;;;;19.76;45.27;101881.22;5045592;28;20245;-74
2021/04/20 07:41:32;;;;;;;41.75;37.28;;;;;;;19.11;46.37;101844.75;5043503;28;20037;-75
2021/04/20 07:44:08;;;;;;;43.70;37.65;;;;;;;19.07;46.30;101885.91;5047941;28;20043;-81
2021/04/20 07:46:45;;;;;;;44.10;38.80;;;;;;;18.61;48.52;101882.22;5050112;28;20120;-74
2021/04/20 07:49:30;;;;;;;42.75;38.20;;;;;;;19.15;47.82;101888.50;5050032;28;20036;-81
2021/04/20 07:52:00;;;;;;;42.17;37.63;;;;;;;19.74;45.32;101890.38;5046851;28;20043;-75
2021/04/20 07:54:54;;;;;;;43.05;38.40;;;;;;;19.79;46.71;101878.97;5046176;28;20112;-74
2021/04/20 07:57:25;;;;;;;42.30;37.80;;;;;;;20.10;44.93;101887.88;5049905;28;20030;-74
2021/04/20 08:00:01;;;;;;;42.33;37.83;;;;;;;20.68;43.09;101885.16;5049322;28;20039;-74
2021/04/20 08:02:52;;;;;;;42.75;38.28;;;;;;;20.68;42.84;101887.84;5049999;28;20021;-81
2021/04/20 08:05:47;;;;;;;43.75;38.83;;;;;;;20.48;43.34;101887.69;5049371;28;20040;-74
2021/04/20 08:08:19;;;;;;;42.78;38.33;;;;;;;20.83;42.55;101890.50;5047305;28;20039;-75
2021/04/20 08:11:17;;;;;;;42.22;37.83;;;;;;;20.79;42.21;101876.50;5050642;28;20344;-75
2021/04/20 08:13:57;;;;;;;42.50;38.15;;;;;;;21.29;41.06;101891.88;5046051;28;20531;-75
2021/04/20 08:16:29;;;;;;;41.95;37.58;;;;;;;21.33;41.45;101887.72;5048600;28;20127;-74
2021/04/20 08:18:59;;;;;;;42.80;38.10;;;;;;;21.21;41.07;101887.44;5048578;28;20502;-74
2021/04/20 08:21:27;;;;;;;40.95;36.80;;;;;;;21.25;41.89;101886.00;5048913;28;21782;-75
2021/04/20 08:23:55;;;;;;;43.03;37.70;;;;;;;21.55;40.31;101884.91;5046077;28;20113;-75
2021/04/20 08:26:26;;;;;;;41.50;37.20;;;;;;;21.49;40.82;101885.72;5048703;28;20037;-74
2021/04/20 08:28:58;;;;;;;42.08;36.90;;;;;;;21.45;42.46;101892.59;5048770;28;20755;-74
2021/04/20 08:31:50;;;;;;;41.60;37.28;;;;;;;21.49;42.09;101883.84;5049190;28;20063;-80
2021/04/20 08:34:25;;;;;;;40.58;36.28;;;;;;;21.84;40.09;101891.13;5056025;28;20047;-72
2021/04/20 08:37:03;;;;;;;41.25;37.05;;;;;;;22.18;40.23;101887.47;5053901;28;20021;-71
2021/04/20 08:39:47;;;;;;;40.55;36.53;;;;;;;22.13;40.47;101873.66;5053635;28;20036;-71
2021/04/20 08:42:25;;;;;;;38.17;34.25;;;;;;;22.68;36.64;101883.59;5053813;28;20044;-78
2021/04/20 08:45:13;;;;;;;39.20;35.20;;;;;;;22.34;38.48;101880.00;5052290;28;20523;-72
2021/04/20 08:48:08;;;;;;;38.65;34.72;;;;;;;22.99;37.79;101879.41;5049848;28;20041;-77
2021/04/20 08:50:39;;;;;;;39.28;35.30;;;;;;;22.56;38.37;101885.25;5052043;28;20036;-72
2021/04/20 08:53:31;;;;;;;40.22;36.13;;;;;;;22.41;39.59;101872.69;5051919;28;20570;-72
2021/04/20 08:56:34;;;;;;;41.33;35.78;;;;;;;22.68;38.14;101880.03;5047499;28;20033;-75
2021/04/20 08:59:40;;;;;;;39.45;35.25;;;;;;;22.92;39.78;101871.25;5046324;28;20035;-73
2021/04/20 09:02:32;;;;;;;39.53;35.30;;;;;;;22.59;39.84;101868.53;5043961;28;20079;-76
2021/04/20 09:05:16;;;;;;;38.65;34.60;;;;;;;22.86;38.96;101872.09;5039276;28;20024;-73
2021/04/20 09:07:53;;;;;;;37.00;33.05;;;;;;;23.61;37.34;101878.22;5039703;28;20029;-73
2021/04/20 09:10:26;;;;;;;37.17;33.13;;;;;;;24.25;35.95;101881.06;5046329;28;20029;-73
2021/04/20 09:13:01;;;;;;;36.88;33.03;;;;;;;23.60;35.94;101887.44;5044795;28;20163;-73
2021/04/20 09:15:31;;;;;;;37.20;33.47;;;;;;;23.59;36.80;101880.31;5041564;28;20031;-72
2021/04/20 09:18:04;;;;;;;34.33;30.80;;;;;;;23.74;35.85;101850.94;5047247;28;20040;-72
2021/04/20 09:20:48;;;;;;;34.33;30.92;;;;;;;24.24;35.32;101882.97;5048346;28;20032;-75
2021/04/20 09:24:04;;;;;;;33.97;30.58;;;;;;;24.06;34.50;101878.25;5044704;28;20036;-73
2021/04/20 09:26:32;;;;;;;34.40;30.77;;;;;;;23.90;35.35;101887.72;5029923;28;20041;-76
2021/04/20 09:29:23;;;;;;;31.83;28.77;;;;;;;24.48;33.97;101879.66;5046751;28;20064;-74
2021/04/20 09:32:02;;;;;;;33.55;30.05;;;;;;;24.09;34.91;101887.88;5044755;28;20059;-74
2021/04/20 09:34:32;;;;;;;32.45;29.27;;;;;;;24.08;36.07;101884.34;5043955;28;20052;-74
2021/04/20 09:36:58;;;;;;;32.53;29.20;;;;;;;24.39;34.41;101877.19;5045617;28;20068;-74
2021/04/20 09:39:24;;;;;;;29.83;27.00;;;;;;;24.45;34.04;101876.31;5049356;28;20036;-77
2021/04/20 09:41:51;;;;;;;30.88;27.55;;;;;;;23.87;33.91;101882.75;5050026;28;20034;-76
2021/04/20 09:44:35;;;;;;;31.13;27.95;;;;;;;23.46;35.84;101873.06;5041475;28;20120;-74
2021/04/20 09:47:43;;;;;;;30.00;26.95;;;;;;;24.02;34.37;101876.19;5048377;28;21276;-74
2021/04/20 09:50:32;;;;;;;30.98;27.92;;;;;;;24.67;32.46;101875.94;5043597;28;20063;-74
2021/04/20 09:53:00;;;;;;;28.90;26.10;;;;;;;24.49;33.13;101882.16;5039099;28;20283;-74
2021/04/20 09:55:37;;;;;;;29.27;26.48;;;;;;;24.29;33.19;101869.50;5041264;28;20112;-74
2021/04/20 09:58:05;;;;;;;30.23;27.25;;;;;;;24.11;33.84;101853.88;5038548;28;20056;-74
2021/04/20 10:00:31;;;;;;;29.77;26.95;;;;;;;24.23;32.54;101804.94;5040214;28;20098;-74
2021/04/20 10:03:18;;;;;;;28.48;25.52;;;;;;;24.54;33.20;101868.72;5041084;28;20032;-74
2021/04/20 10:06:02;;;;;;;;;;;;;;;24.63;31.51;101869.28;5048598;28;20032;-73
2021/04/20 10:08:47;;;;;;;28.45;25.55;;;;;;;23.74;32.53;101864.56;5048221;28;20393;-76
2021/04/20 10:11:25;;;;;;;27.83;25.15;;;;;;;23.31;34.59;101871.41;5044803;28;20040;-76
2021/04/20 10:14:33;;;;;;;27.70;25.00;;;;;;;22.72;34.10;101865.00;5044698;28;20038;-76
2021/04/20 10:17:16;;;;;;;25.52;22.88;;;;;;;23.07;33.90;101862.84;5044688;28;20036;-74
2021/04/20 10:19:54;;;;;;;28.33;25.23;;;;;;;22.90;33.57;101859.72;5048150;28;20518;-74
2021/04/20 10:22:50;;;;;;;26.25;23.48;;;;;;;22.68;33.24;101861.81;5044412;28;20024;-74
2021/04/20 10:25:34;;;;;;;26.15;23.35;;;;;;;22.81;33.27;101857.44;5032132;28;20674;-76
2021/04/20 10:28:12;;;;;;;23.30;20.90;;;;;;;23.06;32.13;101863.91;5046629;28;20648;-76
2021/04/20 10:30:42;;;;;;;22.60;20.50;;;;;;;22.76;32.74;101852.63;5045785;28;20427;-76
2021/04/20 10:33:11;;;;;;;24.63;21.80;;;;;;;22.12;33.75;101846.69;5042096;28;20501;-79
2021/04/20 10:35:39;;;;;;;24.05;21.55;;;;;;;22.20;33.68;101859.25;5042357;28;20040;-73
2021/04/20 10:38:17;;;;;;;23.00;20.67;;;;;;;22.20;33.38;101851.94;5066156;28;20130;-73
2021/04/20 10:40:45;;;;;;;21.20;19.20;;;;;;;22.04;33.95;101838.75;5055074;28;20718;-77
2021/04/20 10:43:11;;;;;;;;;;;;;;;22.45;33.41;101851.38;5056077;28;20032;-77
2021/04/20 10:45:39;;;;;;;23.08;20.58;;;;;;;21.99;33.72;101842.06;5054759;28;19923;-77
2021/04/20 10:48:05;;;;;;;24.83;22.23;;;;;;;21.89;35.18;101847.91;5051195;28;20035;-77
2021/04/20 10:50:34;;;;;;;23.70;21.23;;;;;;;21.78;35.66;101843.91;5053974;28;20037;-75
2021/04/20 10:53:07;;;;;;;20.88;18.77;;;;;;;21.75;33.62;101843.47;5053968;28;20036;-76
2021/04/20 10:55:35;;;;;;;19.95;17.85;;;;;;;21.95;33.26;101838.09;5055332;28;20024;-76
2021/04/20 10:58:04;;;;;;;19.25;17.35;;;;;;;21.62;32.82;101844.25;5056113;28;20027;-76
2021/04/20 11:00:32;;;;;;;19.25;17.08;;;;;;;21.40;33.76;101841.63;5055843;28;20131;-77
2021/04/20 11:02:58;;;;;;;;;;;;;;;21.10;34.67;101833.72;5054122;28;20040;-78
2021/04/20 11:05:25;;;;;;;17.45;15.60;;;;;;;21.32;33.86;101828.19;5056931;28;19938;-77
2021/04/20 11:07:53;;;;;;;18.92;16.92;;;;;;;21.06;32.58;101833.28;5040748;28;20094;-77
2021/04/20 11:10:21;;;;;;;18.77;16.80;;;;;;;21.09;33.11;101821.19;5055151;28;20035;-77
2021/04/20 11:12:49;;;;;;;17.20;15.43;;;;;;;20.84;34.42;101826.22;5055179;28;20036;-77
2021/04/20 11:15:26;;;;;;;19.02;14.13;;;;;;;20.74;32.86;101815.72;5054020;28;20059;-73
2021/04/20 11:17:54;;;;;;;16.88;15.18;;;;;;;20.83;35.31;101822.69;5053370;28;20040;-74
2021/04/20 11:20:28;;;;;;;;;;;;;;;20.74;33.65;101821.16;5056369;28;20033;-73
2021/04/20 11:23:06;;;;;;;14.35;12.85;;;;;;;20.68;32.88;101816.50;5068717;28;19912;-74
2021/04/20 11:25:37;;;;;;;;;;;;;;;20.59;32.12;101816.66;5056114;28;20043;-73
2021/04/20 11:28:14;;;;;;;12.48;10.73;;;;;;;20.41;31.62;101811.72;5056399;28;20386;-73
2021/04/20 11:30:50;;;;;;;12.25;11.02;;;;;;;20.27;32.26;101791.78;5055164;28;20021;-74
2021/04/20 11:33:22;;;;;;;13.80;12.40;;;;;;;20.57;32.04;101810.59;5081959;28;20069;-73
2021/04/20 11:35:51;;;;;;;14.48;13.00;;;;;;;20.75;31.88;101807.41;5082781;27;20028;-73